North Stonington, Connecticut
Current Conditions -  °F | °C
As of 7:53 AM on Saturday 20 Dec 2014 (Local Time) from KWST Reporting Station
Overcast Overcast  
Wind Chill: -5°   Ceiling: 3200
Heat Index: -2°   Visibility: 10mi
Dew Point: -6°   Wind: 5mph
Humidity: 75%   Direction: 350°N
Pressure: 30.26"   Gusts: NA
Location:  41.44°N, 71.88°W
Report Text: KWST 201253Z AUTO 35004KT 10SM OVC032 M02/M06 A3026 RMK AO2 SLP248 T10171056
Loading
Personal Weather Stations






























Interactive Weather Map New forecast layout! Learn more

10-Day Weather Forecast

Advertisements
Track Severe Weather on mobile